Time;durP1;ratioP1;P1;durP2;ratioP2;P2;SDS_P1;SDS_P2;PMS_P1;PMS_P2;Temp;Humidity;BMP_temperature;BMP_pressure;BME280_temperature;BME280_humidity;BME280_pressure;Samples;Min_cycle;Max_cycle;Signal;HPM_P1;HPM_P2
2023/07/31 00:01:01;;;;;;;6.73;2.80;;;;;;;14.88;100.00;100547.38;4916263;29;20416;-78
2023/07/31 00:03:31;;;;;;;6.43;2.80;;;;;;;14.79;100.00;100546.91;4900320;29;20434;-78
2023/07/31 00:06:01;;;;;;;4.33;2.87;;;;;;;14.78;100.00;100541.69;4906370;29;20438;-77
2023/07/31 00:08:30;;;;;;;4.70;3.20;;;;;;;14.66;100.00;100539.00;4918955;29;20453;-77
2023/07/31 00:10:59;;;;;;;3.90;3.20;;;;;;;14.65;100.00;100544.66;4912750;29;20438;-78
2023/07/31 00:13:28;;;;;;;6.17;2.80;;;;;;;14.56;100.00;100537.91;4919993;29;20460;-78
2023/07/31 00:15:57;;;;;;;6.17;2.60;;;;;;;14.47;100.00;100528.44;4906933;29;20559;-80
2023/07/31 00:18:26;;;;;;;5.37;3.23;;;;;;;14.43;100.00;100527.25;4889964;29;20420;-80
2023/07/31 00:20:57;;;;;;;5.30;2.90;;;;;;;14.54;100.00;100526.41;4909604;29;20434;-80
2023/07/31 00:23:26;;;;;;;6.67;2.47;;;;;;;14.58;100.00;100527.59;4904465;29;20474;-80
2023/07/31 00:25:56;;;;;;;7.30;2.70;;;;;;;14.61;100.00;100525.25;4897961;29;20434;-80
2023/07/31 00:28:25;;;;;;;4.13;2.23;;;;;;;14.61;100.00;100516.25;4900341;29;20450;-79
2023/07/31 00:30:55;;;;;;;2.70;2.10;;;;;;;14.75;100.00;100514.94;4903271;29;20497;-80
2023/07/31 00:33:27;;;;;;;4.87;2.70;;;;;;;14.84;100.00;100510.78;4898805;29;20569;-80
2023/07/31 00:35:58;;;;;;;4.63;2.33;;;;;;;14.84;100.00;100510.78;4893098;29;20413;-80
2023/07/31 00:38:28;;;;;;;2.80;2.10;;;;;;;14.97;100.00;100512.41;4899343;29;20752;-80
2023/07/31 00:40:58;;;;;;;7.00;2.23;;;;;;;14.96;100.00;100517.00;4909025;29;20447;-78
2023/07/31 00:43:27;;;;;;;5.00;2.20;;;;;;;14.95;100.00;100509.09;4907452;29;20527;-78
2023/07/31 00:45:57;;;;;;;6.27;2.63;;;;;;;14.95;100.00;100501.75;4905670;29;20878;-80
2023/07/31 00:48:27;;;;;;;5.23;2.60;;;;;;;15.10;100.00;100507.50;4910894;29;21051;-77
2023/07/31 00:50:58;;;;;;;6.77;2.50;;;;;;;15.22;100.00;100510.22;4924171;29;20436;-77
2023/07/31 00:53:28;;;;;;;5.30;2.57;;;;;;;15.22;100.00;100502.84;4910766;29;20499;-79
2023/07/31 00:55:58;;;;;;;3.50;2.40;;;;;;;15.20;100.00;100499.53;4913662;29;20438;-79
2023/07/31 00:58:29;;;;;;;5.70;2.47;;;;;;;15.28;100.00;100494.78;4915861;29;20424;-80
2023/07/31 01:00:58;;;;;;;6.13;2.47;;;;;;;15.39;100.00;100497.47;4903072;29;20565;-80
2023/07/31 01:03:27;;;;;;;9.10;2.20;;;;;;;15.47;100.00;100501.69;4910514;29;20943;-79
2023/07/31 01:06:16;;;;;;;4.73;2.87;;;;;;;15.57;100.00;100496.47;4906364;29;20434;-79
2023/07/31 01:08:55;;;;;;;4.60;2.57;;;;;;;15.53;100.00;100500.75;4908988;29;20437;-80
2023/07/31 01:11:29;;;;;;;7.43;2.43;;;;;;;15.53;100.00;100492.59;4904321;29;20404;-80
2023/07/31 01:13:59;;;;;;;6.53;3.07;;;;;;;15.65;100.00;100491.44;4910736;29;20494;-78
2023/07/31 01:16:28;;;;;;;4.37;2.50;;;;;;;15.60;100.00;100487.78;4913926;29;20468;-78
2023/07/31 01:18:58;;;;;;;3.30;2.97;;;;;;;15.71;100.00;100486.91;4901414;29;20860;-80
2023/07/31 01:21:54;;;;;;;6.13;2.73;;;;;;;15.61;100.00;100486.72;4905968;29;20859;-80
2023/07/31 01:24:30;;;;;;;3.27;2.97;;;;;;;15.72;100.00;100488.56;4917840;29;20429;-78
2023/07/31 01:27:07;;;;;;;6.10;2.93;;;;;;;15.88;100.00;100489.66;4912494;29;20741;-77
2023/07/31 01:29:45;;;;;;;5.00;2.50;;;;;;;15.83;100.00;100482.19;4921378;29;20386;-78
2023/07/31 01:32:19;;;;;;;4.30;3.20;;;;;;;15.87;100.00;100494.31;4909938;29;20442;-79
2023/07/31 01:34:49;;;;;;;185.00;20.53;;;;;;;15.91;100.00;100498.19;4905833;29;20916;-78
2023/07/31 01:37:18;;;;;;;4.90;2.73;;;;;;;15.86;100.00;100492.66;4905834;29;20932;-79
2023/07/31 01:39:48;;;;;;;6.97;2.43;;;;;;;15.82;100.00;100487.94;4903832;29;20413;-80
2023/07/31 01:42:18;;;;;;;4.60;3.17;;;;;;;15.96;100.00;100490.09;4906608;29;20469;-79
2023/07/31 01:44:47;;;;;;;5.97;2.67;;;;;;;15.96;100.00;100490.09;4900796;29;20469;-80
2023/07/31 01:47:16;;;;;;;3.53;2.67;;;;;;;16.04;100.00;100489.66;4900323;29;20463;-80
2023/07/31 01:49:45;;;;;;;6.00;3.37;;;;;;;16.00;100.00;100479.50;4901374;29;20550;-79
2023/07/31 01:52:14;;;;;;;10.67;3.70;;;;;;;15.95;100.00;100482.97;4902515;29;20475;-80
2023/07/31 01:54:43;;;;;;;7.70;3.80;;;;;;;15.82;100.00;100477.84;4905141;29;20474;-80
2023/07/31 01:57:12;;;;;;;3.53;2.93;;;;;;;15.73;100.00;100467.59;4905960;29;20454;-81
2023/07/31 01:59:43;;;;;;;4.23;2.57;;;;;;;15.71;100.00;100469.72;4903693;29;20417;-80
2023/07/31 02:02:12;;;;;;;3.57;3.27;;;;;;;15.73;100.00;100465.69;4899673;29;20445;-81
2023/07/31 02:12:44;;;;;;;3.83;2.90;;;;;;;15.78;100.00;100452.09;4906605;29;20889;-80
2023/07/31 02:15:15;;;;;;;4.50;2.80;;;;;;;15.75;100.00;100449.88;4903691;29;20458;-80
2023/07/31 02:17:44;;;;;;;7.17;3.30;;;;;;;15.76;100.00;100457.00;4906243;29;20417;-81
2023/07/31 02:20:13;;;;;;;4.23;3.30;;;;;;;15.75;100.00;100449.06;4900882;29;20433;-81
2023/07/31 02:22:44;;;;;;;3.10;2.90;;;;;;;15.82;100.00;100449.72;4912029;29;20463;-78
2023/07/31 02:47:08;;;;;;;4.90;4.53;;;;;;;15.70;100.00;100432.59;4825235;29;21190;-80
2023/07/31 02:49:37;;;;;;;4.60;4.00;;;;;;;15.71;100.00;100432.34;4817035;29;20495;-80
2023/07/31 02:52:07;;;;;;;4.93;3.03;;;;;;;15.84;100.00;100428.47;4844400;29;20526;-79
2023/07/31 02:54:36;;;;;;;5.83;3.67;;;;;;;15.81;100.00;100429.81;4830687;29;21012;-80
2023/07/31 02:57:06;;;;;;;6.03;3.63;;;;;;;15.81;100.00;100424.34;4832649;29;20453;-79
2023/07/31 02:59:36;;;;;;;5.37;3.90;;;;;;;15.76;100.00;100423.44;4824530;29;20452;-79
2023/07/31 03:02:07;;;;;;;10.50;4.00;;;;;;;15.75;100.00;100419.88;4848906;29;20476;-78
2023/07/31 03:04:36;;;;;;;4.50;3.40;;;;;;;15.78;100.00;100426.75;4877415;29;20499;-80
2023/07/31 03:07:06;;;;;;;4.87;4.37;;;;;;;15.87;100.00;100425.25;4877221;29;20503;-79
2023/07/31 03:09:35;;;;;;;7.50;3.60;;;;;;;16.00;100.00;100424.91;4877582;29;20453;-80
2023/07/31 03:12:05;;;;;;;3.60;3.13;;;;;;;16.09;100.00;100426.16;4887494;29;20463;-80
2023/07/31 03:14:34;;;;;;;4.90;4.40;;;;;;;15.91;100.00;100421.78;4876105;29;20496;-78
2023/07/31 03:17:03;;;;;;;5.40;4.10;;;;;;;15.94;100.00;100415.00;4897837;29;20413;-78
2023/07/31 03:19:34;;;;;;;5.80;5.23;;;;;;;16.00;100.00;100416.72;4887211;29;20479;-80
2023/07/31 03:22:03;;;;;;;6.50;4.60;;;;;;;15.92;100.00;100420.72;4906473;29;20467;-79
2023/07/31 03:24:33;;;;;;;4.50;4.00;;;;;;;15.99;100.00;100418.63;4919563;29;20439;-78
2023/07/31 03:27:02;;;;;;;6.73;5.03;;;;;;;15.97;100.00;100419.97;4921989;29;20446;-79
2023/07/31 03:29:31;;;;;;;6.17;4.87;;;;;;;15.97;100.00;100406.31;4915626;29;20694;-80
2023/07/31 03:32:00;;;;;;;9.90;4.40;;;;;;;16.08;100.00;100406.22;4914259;29;20433;-80
2023/07/31 03:34:31;;;;;;;14.37;5.67;;;;;;;16.00;100.00;100409.38;4918185;29;20444;-78
2023/07/31 03:37:02;;;;;;;7.40;5.33;;;;;;;15.95;100.00;100405.72;4911094;29;20465;-80
2023/07/31 03:39:32;;;;;;;13.93;4.93;;;;;;;16.01;100.00;100404.75;4901633;29;20442;-79
2023/07/31 03:42:01;;;;;;;5.30;4.30;;;;;;;15.92;100.00;100407.06;4939071;23;20469;-82
2023/07/31 03:44:31;;;;;;;9.50;5.10;;;;;;;15.90;100.00;100392.84;4931794;29;20400;-80
2023/07/31 03:47:00;;;;;;;8.33;5.30;;;;;;;16.06;100.00;100396.63;4949164;29;20410;-80
2023/07/31 03:49:29;;;;;;;6.10;4.93;;;;;;;16.03;100.00;100397.13;4938559;29;20434;-80
2023/07/31 03:51:59;;;;;;;11.33;4.43;;;;;;;15.94;100.00;100382.25;4937539;29;20406;-80
2023/07/31 03:54:31;;;;;;;6.47;5.87;;;;;;;15.92;100.00;100385.25;4918926;29;20457;-81
2023/07/31 03:57:00;;;;;;;8.63;5.50;;;;;;;15.96;100.00;100396.47;4901436;29;20499;-81
2023/07/31 03:59:29;;;;;;;8.57;5.30;;;;;;;15.86;100.00;100388.97;4899044;29;20431;-80
2023/07/31 04:01:59;;;;;;;6.90;5.77;;;;;;;15.85;100.00;100395.50;4931789;29;20424;-82
2023/07/31 04:04:28;;;;;;;8.93;5.77;;;;;;;15.83;100.00;100386.72;4937939;29;20404;-82
2023/07/31 04:06:57;;;;;;;5.37;4.70;;;;;;;15.82;100.00;100385.09;4928313;29;20509;-82
2023/07/31 04:09:26;;;;;;;7.90;5.40;;;;;;;16.00;100.00;100387.53;4914277;29;20482;-80
2023/07/31 04:11:57;;;;;;;6.60;4.33;;;;;;;15.99;100.00;100380.44;4919757;29;20518;-80
2023/07/31 04:14:26;;;;;;;7.00;4.77;;;;;;;16.00;100.00;100381.25;4918556;29;20466;-81
2023/07/31 04:16:55;;;;;;;8.63;5.20;;;;;;;16.02;100.00;100369.00;4905082;29;20961;-81
2023/07/31 04:19:25;;;;;;;5.90;5.27;;;;;;;16.09;100.00;100375.13;4904541;29;20405;-80
2023/07/31 04:21:54;;;;;;;6.20;5.60;;;;;;;16.07;100.00;100374.53;4908674;29;20452;-83
2023/07/31 04:24:25;;;;;;;8.20;5.20;;;;;;;16.11;100.00;100363.97;4912085;29;20428;-81
2023/07/31 04:26:54;;;;;;;6.00;4.63;;;;;;;16.16;100.00;100358.56;4922925;29;20409;-81
2023/07/31 04:29:25;;;;;;;5.13;4.43;;;;;;;16.19;100.00;100363.50;4918436;29;20449;-80
2023/07/31 04:31:54;;;;;;;7.97;4.93;;;;;;;16.23;100.00;100364.66;4919405;29;20436;-79
2023/07/31 04:34:23;;;;;;;5.87;5.00;;;;;;;16.28;100.00;100366.63;4936189;29;20461;-79
2023/07/31 04:36:53;;;;;;;6.60;5.00;;;;;;;16.38;100.00;100372.22;4929160;29;20458;-80
2023/07/31 04:39:22;;;;;;;6.17;4.70;;;;;;;16.42;100.00;100367.91;4914526;29;20413;-81
2023/07/31 04:41:51;;;;;;;5.27;4.67;;;;;;;16.48;100.00;100365.00;4910391;29;20496;-83
2023/07/31 04:44:25;;;;;;;5.80;4.80;;;;;;;16.43;100.00;100361.38;4909503;29;20427;-82
2023/07/31 04:46:54;;;;;;;5.30;4.00;;;;;;;16.37;100.00;100357.75;4908721;29;20417;-80
2023/07/31 04:49:23;;;;;;;9.77;5.13;;;;;;;16.38;100.00;100358.59;4906830;29;20409;-81
2023/07/31 04:51:52;;;;;;;10.00;5.23;;;;;;;16.40;100.00;100360.00;4904132;29;20439;-82
2023/07/31 04:54:21;;;;;;;6.60;4.33;;;;;;;16.55;100.00;100364.81;4909037;29;20441;-80
2023/07/31 04:56:54;;;;;;;7.53;4.33;;;;;;;16.48;100.00;100362.28;4917018;29;20475;-81
2023/07/31 04:59:24;;;;;;;5.30;4.80;;;;;;;16.47;100.00;100362.53;4909671;29;20409;-81
2023/07/31 05:01:54;;;;;;;5.70;4.03;;;;;;;16.49;100.00;100361.19;4910278;29;20790;-81
2023/07/31 05:04:23;;;;;;;7.40;5.03;;;;;;;16.50;100.00;100364.75;4919079;29;20409;-80
2023/07/31 05:06:55;;;;;;;8.07;4.90;;;;;;;16.50;100.00;100354.66;4920281;29;20406;-80
2023/07/31 05:09:24;;;;;;;5.27;4.70;;;;;;;16.55;100.00;100364.81;4908192;29;20413;-81
2023/07/31 05:11:53;;;;;;;6.93;4.00;;;;;;;16.63;100.00;100367.13;4908160;29;20882;-80
2023/07/31 05:14:23;;;;;;;8.87;5.13;;;;;;;16.69;100.00;100363.38;4910173;29;20475;-80
2023/07/31 05:16:53;;;;;;;6.60;4.90;;;;;;;16.87;100.00;100360.31;4921785;29;20503;-80
2023/07/31 05:19:22;;;;;;;12.20;4.37;;;;;;;17.01;100.00;100366.19;4938832;29;20388;-80
2023/07/31 05:21:52;;;;;;;8.80;5.23;;;;;;;16.94;100.00;100354.66;4938144;29;20426;-82
2023/07/31 05:24:21;;;;;;;12.03;4.83;;;;;;;17.04;100.00;100354.75;4919480;29;20492;-82
2023/07/31 05:26:50;;;;;;;5.07;4.60;;;;;;;17.16;100.00;100351.88;4914364;29;20409;-83
2023/07/31 05:29:19;;;;;;;7.83;4.60;;;;;;;17.19;100.00;100352.16;4909568;29;20443;-81
2023/07/31 05:31:48;;;;;;;6.43;4.10;;;;;;;17.12;100.00;100354.31;4909027;29;20461;-81
2023/07/31 05:34:22;;;;;;;12.30;4.93;;;;;;;17.23;100.00;100355.22;4914563;29;20421;-81
2023/07/31 05:36:51;;;;;;;9.67;4.77;;;;;;;17.35;99.72;100350.41;4907698;29;20408;-82
2023/07/31 05:39:20;;;;;;;6.80;5.03;;;;;;;17.32;98.94;100346.31;4921504;29;20426;-80
2023/07/31 05:41:49;;;;;;;7.87;4.03;;;;;;;17.51;98.04;100344.00;4917679;29;20429;-83
2023/07/31 05:44:18;;;;;;;7.27;4.10;;;;;;;17.47;98.44;100348.34;4909836;29;20500;-83
2023/07/31 05:46:48;;;;;;;11.40;4.93;;;;;;;17.45;98.95;100342.28;4924301;29;20411;-80
2023/07/31 05:49:17;;;;;;;14.90;4.07;;;;;;;17.38;98.16;100339.75;4910610;29;20489;-81
2023/07/31 05:51:47;;;;;;;8.77;4.60;;;;;;;17.28;99.48;100347.88;4929199;29;20404;-81
2023/07/31 05:54:16;;;;;;;6.20;4.70;;;;;;;17.38;100.00;100334.28;4931520;29;20445;-81
2023/07/31 05:56:45;;;;;;;7.67;3.50;;;;;;;17.36;99.46;100339.22;4915033;29;20434;-81
2023/07/31 05:59:15;;;;;;;4.27;3.87;;;;;;;17.55;99.64;100334.19;4911893;29;20493;-81
2023/07/31 06:01:44;;;;;;;6.07;4.17;;;;;;;17.38;99.95;100328.00;4912421;29;20401;-82
2023/07/31 06:04:16;;;;;;;3.67;3.17;;;;;;;17.32;100.00;100335.34;4913061;29;20890;-81
2023/07/31 06:06:47;;;;;;;13.47;3.83;;;;;;;17.39;99.84;100332.38;4919744;29;20465;-81
2023/07/31 06:09:16;;;;;;;4.50;3.53;;;;;;;17.45;100.00;100331.34;4936360;29;20438;-81
2023/07/31 06:11:45;;;;;;;5.90;3.77;;;;;;;17.42;99.74;100342.81;4929987;29;21016;-81
2023/07/31 06:14:14;;;;;;;7.50;3.93;;;;;;;17.39;100.00;100335.13;4928565;29;20447;-80
2023/07/31 06:16:44;;;;;;;5.70;3.47;;;;;;;17.47;100.00;100334.66;4928129;29;20454;-80
2023/07/31 06:19:13;;;;;;;5.00;4.50;;;;;;;17.56;100.00;100335.00;4930585;29;20426;-82
2023/07/31 06:21:43;;;;;;;5.40;3.80;;;;;;;17.64;100.00;100337.28;4931566;29;20412;-81
2023/07/31 06:24:18;;;;;;;4.50;4.10;;;;;;;17.69;100.00;100340.06;4931544;29;20505;-82
2023/07/31 06:26:48;;;;;;;9.50;5.00;;;;;;;17.99;98.89;100339.44;4927806;29;20396;-81
2023/07/31 06:29:17;;;;;;;8.13;4.33;;;;;;;17.74;99.23;100335.44;4910950;29;20409;-81
2023/07/31 06:31:46;;;;;;;5.67;4.03;;;;;;;17.64;100.00;100338.09;4909075;29;20508;-81
2023/07/31 06:34:16;;;;;;;6.10;4.57;;;;;;;17.59;100.00;100340.81;4907854;29;20461;-81
2023/07/31 06:36:45;;;;;;;5.73;4.63;;;;;;;17.90;100.00;100341.84;4908824;29;20495;-82
2023/07/31 06:39:15;;;;;;;6.90;3.80;;;;;;;18.01;100.00;100331.81;4908416;29;20439;-82
2023/07/31 06:41:46;;;;;;;6.70;4.00;;;;;;;18.18;98.42;100329.69;4908106;29;20538;-82
2023/07/31 06:44:15;;;;;;;4.43;3.47;;;;;;;18.23;98.20;100333.28;4907706;29;20505;-81
2023/07/31 06:46:45;;;;;;;7.37;4.60;;;;;;;18.41;98.41;100332.00;4913824;29;20438;-82
2023/07/31 06:49:15;;;;;;;5.20;3.47;;;;;;;18.56;98.48;100337.56;4929537;29;20412;-80
2023/07/31 06:51:45;;;;;;;6.70;4.33;;;;;;;18.58;96.53;100329.94;4932718;29;20419;-81
2023/07/31 06:54:16;;;;;;;6.00;4.30;;;;;;;18.37;96.57;100330.88;4933666;29;20849;-81
2023/07/31 06:56:45;;;;;;;6.77;3.70;;;;;;;18.40;98.26;100329.50;4936217;29;20457;-82
2023/07/31 06:59:15;;;;;;;4.57;4.03;;;;;;;18.41;97.04;100323.78;4934523;29;20418;-82
2023/07/31 07:01:44;;;;;;;8.53;4.77;;;;;;;18.54;96.67;100325.25;4922165;29;20479;-81
2023/07/31 07:04:14;;;;;;;5.90;4.50;;;;;;;18.55;96.69;100332.34;4913862;29;20466;-81
2023/07/31 07:06:44;;;;;;;9.33;4.40;;;;;;;18.60;97.02;100335.94;4911167;29;20514;-81
2023/07/31 07:09:15;;;;;;;6.33;4.20;;;;;;;18.49;97.38;100328.72;4903549;29;20751;-82
2023/07/31 07:11:44;;;;;;;5.40;4.03;;;;;;;18.40;97.43;100329.50;4909930;29;20425;-83
2023/07/31 07:14:13;;;;;;;4.73;3.03;;;;;;;18.11;99.13;100326.34;4907742;29;20701;-81
2023/07/31 07:16:42;;;;;;;6.13;3.70;;;;;;;17.96;100.00;100334.50;4908325;29;20470;-80
2023/07/31 07:19:12;;;;;;;5.17;3.70;;;;;;;17.90;100.00;100335.56;4915476;29;20430;-81
2023/07/31 07:21:41;;;;;;;5.00;4.13;;;;;;;17.99;100.00;100333.97;4915402;29;20434;-80
2023/07/31 07:24:11;;;;;;;4.43;3.43;;;;;;;18.00;100.00;100335.63;4914355;29;20466;-81
2023/07/31 07:26:42;;;;;;;3.57;3.07;;;;;;;18.14;99.80;100336.81;4914349;29;20417;-80
2023/07/31 07:29:11;;;;;;;4.57;3.27;;;;;;;18.43;96.84;100338.03;4921286;29;20389;-81
2023/07/31 07:31:40;;;;;;;11.70;3.60;;;;;;;18.93;94.80;100328.34;4920063;29;20423;-80
2023/07/31 07:34:10;;;;;;;12.30;3.40;;;;;;;19.01;92.51;100325.09;4914419;29;20450;-82
2023/07/31 07:36:39;;;;;;;5.07;3.30;;;;;;;19.21;92.47;100322.41;4917435;29;20454;-81
2023/07/31 07:39:10;;;;;;;4.30;3.03;;;;;;;19.33;90.92;100333.91;4913536;29;20448;-81
2023/07/31 07:41:41;;;;;;;4.60;3.40;;;;;;;19.36;90.21;100327.91;4911789;29;20417;-81
2023/07/31 07:44:12;;;;;;;9.23;3.70;;;;;;;19.50;89.58;100323.53;4912391;29;20461;-83
2023/07/31 07:46:42;;;;;;;7.10;3.60;;;;;;;19.53;87.74;100322.97;4912313;29;20405;-82
2023/07/31 07:49:12;;;;;;;6.40;3.07;;;;;;;19.30;88.91;100320.75;4914022;29;20439;-81
2023/07/31 07:51:41;;;;;;;3.23;2.83;;;;;;;19.19;89.86;100319.09;4914451;29;20409;-82
2023/07/31 07:54:10;;;;;;;4.10;3.70;;;;;;;18.98;90.93;100315.50;4913472;29;20454;-81
2023/07/31 07:56:41;;;;;;;5.47;3.30;;;;;;;18.92;91.36;100315.78;4918136;29;20516;-81
2023/07/31 07:59:11;;;;;;;6.33;3.87;;;;;;;18.88;93.43;100314.66;4918768;29;20401;-81
2023/07/31 08:01:40;;;;;;;5.50;4.03;;;;;;;18.85;93.84;100320.66;4918628;29;20445;-80
2023/07/31 08:04:09;;;;;;;5.33;3.57;;;;;;;18.72;95.56;100305.56;4917556;29;20458;-82
2023/07/31 08:06:38;;;;;;;11.43;5.70;;;;;;;18.73;97.75;100317.38;4920169;29;20443;-79
2023/07/31 08:09:08;;;;;;;7.10;3.90;;;;;;;18.75;97.84;100304.19;4918903;29;20862;-80
2023/07/31 08:11:38;;;;;;;10.67;3.23;;;;;;;18.60;98.38;100308.53;4920623;29;20417;-79
2023/07/31 08:14:10;;;;;;;7.20;3.40;;;;;;;18.75;98.58;100302.28;4921300;29;20412;-81
2023/07/31 08:16:39;;;;;;;5.43;3.63;;;;;;;18.59;98.22;100295.94;4932266;29;20450;-81
2023/07/31 08:19:12;;;;;;;3.13;2.80;;;;;;;18.45;99.52;100305.72;4937316;29;20446;-81
2023/07/31 08:21:42;;;;;;;4.97;3.27;;;;;;;18.50;98.96;100305.72;4938697;29;20420;-81
2023/07/31 08:24:12;;;;;;;4.33;2.90;;;;;;;18.44;98.86;100298.59;4937804;29;20449;-81
2023/07/31 08:26:41;;;;;;;2.43;2.13;;;;;;;18.22;99.34;100300.69;4938254;29;20417;-80
2023/07/31 08:29:12;;;;;;;5.27;2.90;;;;;;;18.04;100.00;100299.22;4937063;29;20455;-82
2023/07/31 08:31:41;;;;;;;5.13;2.97;;;;;;;18.06;100.00;100298.94;4934508;29;20442;-82
2023/07/31 08:34:11;;;;;;;3.33;2.67;;;;;;;18.21;100.00;100291.66;4933126;29;20503;-81
2023/07/31 08:36:40;;;;;;;4.87;3.40;;;;;;;18.52;100.00;100295.34;4892113;29;20441;-82
2023/07/31 08:39:13;;;;;;;3.73;3.20;;;;;;;18.58;100.00;100288.81;4895184;29;20423;-81
2023/07/31 08:41:42;;;;;;;4.00;3.10;;;;;;;18.45;99.51;100294.75;4924218;29;20405;-82
2023/07/31 08:44:15;;;;;;;6.70;3.77;;;;;;;18.57;99.23;100298.13;4933708;29;20980;-81
2023/07/31 08:46:44;;;;;;;5.10;3.23;;;;;;;18.77;98.04;100291.06;4917095;29;20434;-81
2023/07/31 08:49:14;;;;;;;3.83;2.63;;;;;;;18.84;98.39;100297.09;4918866;29;20438;-82
2023/07/31 08:51:50;;;;;;;2.73;2.53;;;;;;;19.36;95.22;100292.22;4917205;29;20442;-80
2023/07/31 08:54:29;;;;;;;5.57;4.07;;;;;;;19.89;91.87;100295.50;4916514;29;20381;-81
2023/07/31 08:57:04;;;;;;;3.83;2.60;;;;;;;20.27;87.62;100294.81;4913353;29;20492;-80
2023/07/31 09:02:24;;;;;;;3.40;2.33;;;;;;;20.35;86.05;100299.78;4915527;29;20436;-82
2023/07/31 09:04:55;;;;;;;3.70;3.10;;;;;;;20.38;86.90;100299.19;4915500;29;20422;-81
2023/07/31 09:07:36;;;;;;;3.40;2.80;;;;;;;20.28;88.04;100295.66;4913019;29;20426;-80
2023/07/31 09:10:20;;;;;;;3.10;2.80;;;;;;;20.66;86.65;100299.63;4919948;29;20772;-80
2023/07/31 09:13:09;;;;;;;3.20;2.77;;;;;;;20.32;86.20;100296.75;4908787;29;20517;-80
2023/07/31 09:15:54;;;;;;;4.83;3.47;;;;;;;20.27;86.21;100300.31;4907549;29;20416;-80
2023/07/31 09:18:56;;;;;;;3.00;2.50;;;;;;;20.60;84.37;100292.50;4926482;29;20505;-81
2023/07/31 09:21:30;;;;;;;4.40;3.20;;;;;;;20.62;83.50;100287.56;4938343;29;20481;-80
2023/07/31 09:24:06;;;;;;;3.77;2.90;;;;;;;20.61;83.61;100281.25;4924792;29;20536;-82
2023/07/31 09:26:38;;;;;;;3.40;2.77;;;;;;;20.37;85.54;100294.00;4910120;29;20410;-81
2023/07/31 09:29:19;;;;;;;5.70;3.17;;;;;;;19.99;88.07;100289.97;4913903;29;20418;-82
2023/07/31 09:31:50;;;;;;;4.67;2.60;;;;;;;19.75;90.85;100295.22;4910948;29;20447;-81
2023/07/31 09:34:19;;;;;;;3.63;2.23;;;;;;;19.72;92.46;100292.22;4924323;29;20414;-81
2023/07/31 09:36:49;;;;;;;3.63;2.20;;;;;;;19.32;93.91;100282.88;4932629;29;20470;-80
2023/07/31 09:39:19;;;;;;;3.87;2.40;;;;;;;19.14;96.22;100291.66;4920163;29;20457;-80
2023/07/31 09:41:55;;;;;;;5.27;3.30;;;;;;;18.85;99.24;100293.25;4919204;29;20835;-80
2023/07/31 09:44:40;;;;;;;3.50;2.20;;;;;;;18.57;100.00;100287.16;4925152;23;20577;-79
2023/07/31 09:47:24;;;;;;;3.30;2.23;;;;;;;18.54;100.00;100284.16;4903515;29;20427;-80
2023/07/31 09:49:54;;;;;;;4.70;2.33;;;;;;;18.49;100.00;100284.91;4906369;29;20518;-78
2023/07/31 09:52:26;;;;;;;2.50;2.10;;;;;;;18.67;100.00;100287.19;4918527;29;20493;-78
2023/07/31 09:54:56;;;;;;;2.70;1.90;;;;;;;18.92;100.00;100278.22;4905703;29;20511;-78
2023/07/31 09:57:25;;;;;;;3.23;2.10;;;;;;;19.28;97.83;100278.22;4901265;29;20465;-78
2023/07/31 09:59:55;;;;;;;3.73;2.23;;;;;;;19.28;96.71;100280.97;4901987;29;20445;-78
2023/07/31 10:02:27;;;;;;;3.80;2.57;;;;;;;19.30;95.92;100274.13;4901853;29;20409;-77
2023/07/31 10:05:00;;;;;;;3.17;2.83;;;;;;;19.57;94.76;100279.34;4900268;29;20482;-78
2023/07/31 10:07:31;;;;;;;2.53;2.10;;;;;;;19.75;92.98;100264.22;4897972;29;20495;-78
2023/07/31 10:10:01;;;;;;;4.57;3.00;;;;;;;20.01;90.55;100273.19;4906676;29;20436;-77
2023/07/31 10:12:34;;;;;;;6.47;3.13;;;;;;;20.10;89.29;100271.53;4907296;29;20973;-78
2023/07/31 10:15:04;;;;;;;5.17;3.30;;;;;;;20.15;89.03;100266.84;4899988;29;20446;-78
2023/07/31 10:17:36;;;;;;;3.57;3.20;;;;;;;20.34;87.57;100281.63;4909574;29;20830;-78
2023/07/31 10:20:07;;;;;;;3.60;3.30;;;;;;;19.90;88.61;100266.91;4898826;29;20483;-77
2023/07/31 10:22:37;;;;;;;3.73;3.43;;;;;;;19.69;89.48;100266.16;4893505;29;20494;-77
2023/07/31 10:25:10;;;;;;;4.40;4.00;;;;;;;19.40;92.28;100265.88;4900235;29;20439;-77
2023/07/31 10:27:40;;;;;;;8.00;4.80;;;;;;;19.33;93.75;100268.06;4903039;29;20427;-77
2023/07/31 10:30:17;;;;;;;5.00;3.73;;;;;;;19.53;93.78;100257.13;4901273;29;20454;-79
2023/07/31 10:32:54;;;;;;;8.87;6.43;;;;;;;19.47;94.44;100258.22;4905248;29;20441;-78
2023/07/31 10:35:23;;;;;;;8.33;5.00;;;;;;;19.60;94.66;100256.03;4901927;29;20421;-80
2023/07/31 10:37:54;;;;;;;6.13;4.60;;;;;;;19.47;94.52;100252.72;4914610;29;20485;-77
2023/07/31 10:40:27;;;;;;;5.07;4.07;;;;;;;19.37;94.85;100251.88;4914910;29;20409;-81
2023/07/31 10:42:59;;;;;;;7.30;4.80;;;;;;;19.40;95.25;100252.16;4909280;29;20560;-78
2023/07/31 10:45:36;;;;;;;7.20;4.10;;;;;;;19.72;92.60;100248.28;4895938;29;20413;-80
2023/07/31 10:48:08;;;;;;;6.67;3.90;;;;;;;20.18;90.85;100246.25;4901209;29;20454;-79
2023/07/31 10:50:40;;;;;;;5.30;4.60;;;;;;;20.57;88.35;100244.44;4899068;29;20438;-80
2023/07/31 10:53:25;;;;;;;5.93;5.20;;;;;;;21.08;84.24;100239.41;4899203;29;20462;-79
2023/07/31 10:55:59;;;;;;;6.80;5.27;;;;;;;21.79;81.12;100237.91;4902985;29;20433;-78
2023/07/31 10:58:28;;;;;;;10.17;6.10;;;;;;;21.74;80.00;100235.22;4902458;29;20473;-79
2023/07/31 11:00:59;;;;;;;5.07;3.93;;;;;;;22.16;78.11;100226.25;4910907;29;20408;-80
2023/07/31 11:03:43;;;;;;;8.27;5.20;;;;;;;22.38;76.33;100212.69;4917189;29;20899;-80
2023/07/31 11:06:14;;;;;;;5.03;4.50;;;;;;;22.52;74.90;100216.38;4900352;29;20864;-78
2023/07/31 11:08:48;;;;;;;8.30;5.17;;;;;;;22.75;74.58;100222.97;4900973;29;20404;-80
2023/07/31 11:11:20;;;;;;;9.80;5.60;;;;;;;22.80;72.90;100220.94;4913826;29;21020;-79
2023/07/31 11:13:52;;;;;;;7.20;4.87;;;;;;;22.23;74.27;100219.25;4911869;29;20818;-79
2023/07/31 11:16:23;;;;;;;6.83;4.10;;;;;;;22.06;74.88;100217.00;4918809;29;20438;-81
2023/07/31 11:18:55;;;;;;;7.03;4.77;;;;;;;22.20;74.63;100211.56;4922282;29;20499;-80
2023/07/31 11:21:26;;;;;;;5.60;5.00;;;;;;;22.05;73.69;100209.84;4907669;29;20413;-78
2023/07/31 11:23:58;;;;;;;11.70;5.90;;;;;;;21.82;75.65;100215.31;4906471;29;20458;-77
2023/07/31 11:26:30;;;;;;;10.53;5.27;;;;;;;22.20;75.31;100216.25;4900103;29;20460;-79
2023/07/31 11:29:00;;;;;;;6.10;4.30;;;;;;;22.37;71.63;100213.81;4916248;29;20506;-80
2023/07/31 11:31:29;;;;;;;7.63;4.80;;;;;;;22.46;72.26;100204.59;4901248;29;20649;-79
2023/07/31 11:34:08;;;;;;;6.53;4.30;;;;;;;22.04;74.07;100210.94;4900879;29;20465;-78
2023/07/31 11:36:38;;;;;;;4.33;3.93;;;;;;;21.74;74.28;100214.00;4900513;29;20449;-78
2023/07/31 11:39:09;;;;;;;7.53;5.10;;;;;;;21.64;74.39;100219.63;4900285;29;20506;-81
2023/07/31 11:41:41;;;;;;;6.00;4.20;;;;;;;21.32;76.23;100211.97;4903876;29;20452;-78
2023/07/31 11:44:10;;;;;;;6.97;4.00;;;;;;;21.14;76.58;100205.28;4908585;29;20517;-80
2023/07/31 11:46:58;;;;;;;5.60;4.53;;;;;;;20.85;77.19;100211.81;4907224;29;20866;-77
2023/07/31 11:49:30;;;;;;;6.73;4.33;;;;;;;20.91;77.76;100202.41;4916314;29;20449;-77
2023/07/31 11:52:01;;;;;;;8.63;5.03;;;;;;;21.09;73.61;100210.78;4912725;29;20409;-79
2023/07/31 11:54:31;;;;;;;6.30;4.20;;;;;;;21.11;73.32;100211.28;4903627;29;20540;-79
2023/07/31 11:57:01;;;;;;;6.17;4.90;;;;;;;21.34;72.89;100211.69;4902786;29;20469;-79
2023/07/31 11:59:31;;;;;;;5.83;3.60;;;;;;;21.13;72.68;100206.38;4900268;29;20573;-78
2023/07/31 12:02:00;;;;;;;8.87;4.40;;;;;;;20.99;72.53;100196.28;4908962;29;20412;-79
2023/07/31 12:08:44;;;;;;;5.07;4.27;;;;;;;21.04;73.78;100193.50;4900085;29;20402;-77
2023/07/31 12:11:14;;;;;;;5.10;3.93;;;;;;;20.86;73.82;100189.53;4900859;29;20521;-77
2023/07/31 12:13:44;;;;;;;4.73;4.20;;;;;;;20.84;73.96;100191.72;4905830;29;20424;-79